createdAt,value
2022-08-30T00:00:00.542Z,6.00
2022-08-30T00:02:25.499Z,5.70
2022-08-30T00:04:48.544Z,7.40
2022-08-30T00:07:11.249Z,8.90
2022-08-30T00:09:36.086Z,7.10
2022-08-30T00:11:59.055Z,6.80
2022-08-30T00:14:21.715Z,6.90
2022-08-30T00:16:44.462Z,5.40
2022-08-30T00:19:09.509Z,7.70
2022-08-30T00:21:32.906Z,6.20
2022-08-30T00:23:55.578Z,5.80
2022-08-30T00:26:20.546Z,6.50
2022-08-30T00:28:43.292Z,8.20
2022-08-30T00:31:06.273Z,6.70
2022-08-30T00:33:32.577Z,7.90
2022-08-30T00:35:55.980Z,6.40
2022-08-30T00:38:19.021Z,8.60
2022-08-30T00:40:44.386Z,6.80
2022-08-30T00:43:10.168Z,6.80
2022-08-30T00:45:37.888Z,5.40
2022-08-30T00:48:01.149Z,7.00
2022-08-30T00:50:26.461Z,5.50
2022-08-30T00:52:52.887Z,6.80
2022-08-30T00:55:17.377Z,7.10
2022-08-30T00:57:41.610Z,7.10
2022-08-30T01:00:08.318Z,7.30
2022-08-30T01:02:31.485Z,6.40
2022-08-30T01:04:55.608Z,7.80
2022-08-30T01:07:19.429Z,7.20
2022-08-30T01:09:42.307Z,6.50
2022-08-30T01:12:05.636Z,6.20
2022-08-30T01:14:28.433Z,5.50
2022-08-30T01:16:53.883Z,8.60
2022-08-30T01:19:36.421Z,6.40
2022-08-30T01:22:28.577Z,7.40
2022-08-30T01:24:52.663Z,6.20
2022-08-30T01:27:16.584Z,4.90
2022-08-30T01:29:45.162Z,7.30
2022-08-30T01:32:08.660Z,5.70
2022-08-30T01:34:33.792Z,5.80
2022-08-30T01:36:58.736Z,5.40
2022-08-30T01:39:24.130Z,6.80
2022-08-30T01:41:46.996Z,9.30
2022-08-30T01:44:13.470Z,7.10
2022-08-30T01:46:38.224Z,7.30
2022-08-30T01:49:01.995Z,6.70
2022-08-30T01:51:28.951Z,6.40
2022-08-30T01:53:52.078Z,6.10
2022-08-30T01:56:16.998Z,6.60
2022-08-30T01:58:40.073Z,6.50
2022-08-30T02:01:04.895Z,7.40
2022-08-30T02:03:33.173Z,8.60
2022-08-30T02:05:56.896Z,8.50
2022-08-30T02:08:19.647Z,7.50
2022-08-30T02:10:42.214Z,6.20
2022-08-30T02:13:04.886Z,5.30
2022-08-30T02:15:30.463Z,7.50
2022-08-30T02:17:56.983Z,7.00
2022-08-30T02:20:20.016Z,6.70
2022-08-30T02:22:47.728Z,6.00
2022-08-30T02:25:21.093Z,5.80
2022-08-30T02:27:44.060Z,5.70
2022-08-30T02:30:08.431Z,6.70
2022-08-30T02:32:31.001Z,6.10
2022-08-30T02:34:56.046Z,6.20
2022-08-30T02:37:19.182Z,6.90
2022-08-30T02:39:44.654Z,7.80
2022-08-30T02:42:07.313Z,4.90
2022-08-30T02:44:32.406Z,6.50
2022-08-30T02:47:00.066Z,6.30
2022-08-30T02:49:33.266Z,5.20
2022-08-30T02:51:59.160Z,5.50
2022-08-30T02:54:21.850Z,6.10
2022-08-30T02:56:44.371Z,6.80
2022-08-30T02:59:06.916Z,7.00
2022-08-30T03:01:30.049Z,7.00
2022-08-30T03:03:53.049Z,6.60
2022-08-30T03:06:15.805Z,5.70
2022-08-30T03:08:38.400Z,6.80
2022-08-30T03:11:03.012Z,5.70
2022-08-30T03:13:25.852Z,7.20
2022-08-30T03:15:50.554Z,5.40
2022-08-30T03:18:15.811Z,7.10
2022-08-30T03:20:40.644Z,5.80
2022-08-30T03:23:08.853Z,7.10
2022-08-30T03:25:34.031Z,6.80
2022-08-30T03:27:59.246Z,7.10
2022-08-30T03:30:22.620Z,6.30
2022-08-30T03:32:45.549Z,7.40
2022-08-30T03:35:09.268Z,6.30
2022-08-30T03:37:32.064Z,6.20
2022-08-30T03:39:55.130Z,7.00
2022-08-30T03:42:18.070Z,5.70
2022-08-30T03:44:40.780Z,6.10
2022-08-30T03:47:04.902Z,5.50
2022-08-30T03:49:29.956Z,6.00
2022-08-30T03:51:52.762Z,5.80
2022-08-30T03:54:15.618Z,6.10
2022-08-30T03:56:38.253Z,6.00
2022-08-30T03:59:00.877Z,6.60
2022-08-30T04:01:23.591Z,7.80
2022-08-30T04:03:46.278Z,5.80
2022-08-30T04:06:09.027Z,7.40
2022-08-30T04:08:31.697Z,6.20
2022-08-30T04:10:55.788Z,8.30
2022-08-30T04:13:18.399Z,6.40
2022-08-30T04:15:41.967Z,7.80
2022-08-30T04:18:04.682Z,6.20
2022-08-30T04:20:30.435Z,5.60
2022-08-30T04:22:53.033Z,5.60
2022-08-30T04:25:16.094Z,6.00
2022-08-30T04:27:38.782Z,8.60
2022-08-30T04:30:03.790Z,5.10
2022-08-30T04:32:31.336Z,6.70
2022-08-30T04:34:59.918Z,7.70
2022-08-30T04:37:22.619Z,6.10
2022-08-30T04:39:46.570Z,6.70
2022-08-30T04:42:11.592Z,6.50
2022-08-30T04:44:34.138Z,6.70
2022-08-30T04:46:59.327Z,5.90
2022-08-30T04:49:24.081Z,7.60
2022-08-30T04:51:46.754Z,6.50
2022-08-30T04:54:09.782Z,5.90
2022-08-30T04:56:33.715Z,6.90
2022-08-30T04:58:57.328Z,5.60
2022-08-30T05:01:24.642Z,5.10
2022-08-30T05:03:48.352Z,5.20
2022-08-30T05:06:12.129Z,5.20
2022-08-30T05:08:37.046Z,6.00
2022-08-30T05:10:59.861Z,5.10
2022-08-30T05:13:35.139Z,4.80
2022-08-30T05:16:01.127Z,4.60
2022-08-30T05:18:26.282Z,4.40
2022-08-30T05:20:48.879Z,5.00
2022-08-30T05:23:12.043Z,4.20
2022-08-30T05:25:40.215Z,4.80
2022-08-30T05:28:03.042Z,4.70
2022-08-30T05:30:27.170Z,5.80
2022-08-30T05:32:52.493Z,4.90
2022-08-30T05:35:22.206Z,5.30
2022-08-30T05:37:50.975Z,4.60
2022-08-30T05:40:17.660Z,3.90
2022-08-30T05:42:41.874Z,6.00
2022-08-30T05:45:07.415Z,4.80
2022-08-30T05:47:29.956Z,6.00
2022-08-30T05:49:52.703Z,5.00
2022-08-30T05:52:20.748Z,5.50
2022-08-30T05:54:43.599Z,4.10
2022-08-30T05:57:06.350Z,4.50
2022-08-30T05:59:31.857Z,4.50
2022-08-30T06:01:57.118Z,4.10
2022-08-30T06:04:22.854Z,6.50
2022-08-30T06:06:45.512Z,3.80
2022-08-30T06:09:09.056Z,4.60
2022-08-30T06:11:32.065Z,2.90
2022-08-30T06:13:55.057Z,2.50
2022-08-30T06:16:19.025Z,4.60
2022-08-30T06:18:41.881Z,3.90
2022-08-30T06:21:07.292Z,4.10
2022-08-30T06:23:32.804Z,3.00
2022-08-30T06:25:55.405Z,4.60
2022-08-30T06:28:18.566Z,3.00
2022-08-30T06:30:41.910Z,4.30
2022-08-30T06:33:07.317Z,4.20
2022-08-30T06:35:32.685Z,3.10
2022-08-30T06:37:58.038Z,3.90
2022-08-30T06:40:21.891Z,3.50
2022-08-30T06:42:48.039Z,3.60
2022-08-30T06:45:11.290Z,2.60
2022-08-30T06:47:34.251Z,6.00
2022-08-30T06:49:58.127Z,2.40
2022-08-30T06:52:21.187Z,3.10
2022-08-30T06:54:43.879Z,3.70
2022-08-30T06:57:08.811Z,3.80
2022-08-30T06:59:33.980Z,3.60
2022-08-30T07:02:01.451Z,3.90
2022-08-30T07:04:25.062Z,6.60
2022-08-30T07:06:50.465Z,3.50
2022-08-30T07:09:13.460Z,2.90
2022-08-30T07:11:40.671Z,2.40
2022-08-30T07:14:06.489Z,3.80
2022-08-30T07:16:29.749Z,2.20
2022-08-30T07:18:55.138Z,2.90
2022-08-30T07:21:20.773Z,2.90
2022-08-30T07:23:44.239Z,3.10
2022-08-30T07:26:08.521Z,2.70
2022-08-30T07:28:31.273Z,2.70
2022-08-30T07:30:56.584Z,4.50
2022-08-30T07:33:19.662Z,2.80
2022-08-30T07:35:45.558Z,4.40
2022-08-30T07:38:12.875Z,2.80
2022-08-30T07:40:38.109Z,5.00
2022-08-30T07:43:02.353Z,9.00
2022-08-30T07:45:25.155Z,4.40
2022-08-30T07:47:50.150Z,3.50
2022-08-30T07:50:13.314Z,2.00
2022-08-30T07:55:04.255Z,3.10
2022-08-30T07:57:27.076Z,4.60
2022-08-30T07:59:49.926Z,3.80
2022-08-30T08:02:12.614Z,3.60
2022-08-30T08:04:35.856Z,4.00
2022-08-30T08:06:58.851Z,3.20
2022-08-30T08:09:26.294Z,3.30
2022-08-30T08:11:48.841Z,2.70
2022-08-30T08:16:44.927Z,2.30
2022-08-30T08:19:09.849Z,1.30
2022-08-30T08:21:32.469Z,4.10
2022-08-30T08:23:55.217Z,2.00
2022-08-30T08:26:18.764Z,2.30
2022-08-30T08:28:45.321Z,2.90
2022-08-30T08:31:18.668Z,3.70
2022-08-30T08:33:41.567Z,2.80
2022-08-30T08:36:09.561Z,2.60
2022-08-30T08:38:32.596Z,3.00
2022-08-30T08:41:17.801Z,1.50
2022-08-30T08:43:41.184Z,2.70
2022-08-30T08:46:06.059Z,2.60
2022-08-30T08:48:35.915Z,3.10
2022-08-30T08:51:35.042Z,1.70
2022-08-30T08:54:08.747Z,3.80
2022-08-30T08:56:32.928Z,2.90
2022-08-30T08:58:58.969Z,2.30
2022-08-30T09:01:25.780Z,1.70
2022-08-30T09:03:51.459Z,2.40
2022-08-30T09:06:23.995Z,1.60
2022-08-30T09:08:46.545Z,1.30
2022-08-30T09:11:16.996Z,2.20
2022-08-30T09:13:39.606Z,1.70
2022-08-30T09:16:05.352Z,1.20
2022-08-30T09:18:48.183Z,1.30
2022-08-30T09:21:14.280Z,3.40
2022-08-30T09:23:37.139Z,1.80
2022-08-30T09:26:01.814Z,2.80
2022-08-30T09:28:26.616Z,2.90
2022-08-30T09:30:58.830Z,2.10
2022-08-30T09:33:21.481Z,1.20
2022-08-30T09:35:49.395Z,1.20
2022-08-30T09:38:17.557Z,1.80
2022-08-30T09:40:46.056Z,2.00
2022-08-30T09:43:11.987Z,2.30
2022-08-30T09:45:36.693Z,1.60
2022-08-30T09:47:59.512Z,0.90
2022-08-30T09:50:24.281Z,3.10
2022-08-30T09:53:10.715Z,1.80
2022-08-30T09:55:55.415Z,2.20
2022-08-30T09:58:32.486Z,2.40
2022-08-30T10:01:03.955Z,1.50
2022-08-30T10:06:12.250Z,1.90
2022-08-30T10:08:41.678Z,3.00
2022-08-30T10:11:19.429Z,1.20
2022-08-30T10:13:51.566Z,2.50
2022-08-30T10:16:23.371Z,1.60
2022-08-30T10:18:55.648Z,2.00
2022-08-30T10:21:21.456Z,2.50
2022-08-30T10:23:50.216Z,2.10
2022-08-30T10:26:13.095Z,1.40
2022-08-30T10:28:46.822Z,3.10
2022-08-30T10:31:18.285Z,1.00
2022-08-30T10:33:49.191Z,1.30
2022-08-30T10:36:13.808Z,2.50
2022-08-30T10:38:40.392Z,2.20
2022-08-30T10:41:15.371Z,2.20
2022-08-30T10:43:50.914Z,1.90
2022-08-30T10:46:24.944Z,1.60
2022-08-30T10:48:48.199Z,1.60
2022-08-30T10:51:15.690Z,1.50
2022-08-30T10:53:48.041Z,2.30
2022-08-30T10:56:15.957Z,1.70
2022-08-30T10:58:39.161Z,3.00
2022-08-30T11:01:12.672Z,2.30
2022-08-30T11:03:51.002Z,2.50
2022-08-30T11:06:17.274Z,5.90
2022-08-30T11:08:58.766Z,2.20
2022-08-30T11:11:27.763Z,3.30
2022-08-30T11:13:57.105Z,3.00
2022-08-30T11:16:35.884Z,2.50
2022-08-30T11:19:03.470Z,2.10
2022-08-30T11:21:26.291Z,4.00
2022-08-30T11:24:06.644Z,8.30
2022-08-30T11:26:45.833Z,4.60
2022-08-30T11:29:12.229Z,5.10
2022-08-30T11:31:39.777Z,5.60
2022-08-30T11:34:03.858Z,4.60
2022-08-30T11:36:37.373Z,5.10
2022-08-30T11:39:14.477Z,1.30
2022-08-30T11:41:46.252Z,1.80
2022-08-30T11:44:16.244Z,2.60
2022-08-30T11:46:43.418Z,2.10
2022-08-30T11:49:14.008Z,0.90
2022-08-30T11:52:08.205Z,0.90
2022-08-30T11:54:39.457Z,1.90
2022-08-30T11:57:18.177Z,1.10
2022-08-30T11:59:46.768Z,2.50
2022-08-30T12:02:29.941Z,2.30
2022-08-30T12:04:56.706Z,1.90
2022-08-30T12:07:38.501Z,1.60
2022-08-30T12:10:04.288Z,1.60
2022-08-30T12:12:27.070Z,1.80
2022-08-30T12:14:57.812Z,0.80
2022-08-30T12:17:39.394Z,2.30
2022-08-30T12:20:04.096Z,1.20
2022-08-30T12:22:38.028Z,0.90
2022-08-30T12:25:00.946Z,1.20
2022-08-30T12:27:32.441Z,1.40
2022-08-30T12:29:59.489Z,1.20
2022-08-30T12:32:22.491Z,2.10
2022-08-30T12:34:47.627Z,1.40
2022-08-30T12:37:23.563Z,1.40
2022-08-30T12:39:46.164Z,0.80
2022-08-30T12:42:27.574Z,2.60
2022-08-30T12:44:58.123Z,2.40
2022-08-30T12:47:30.292Z,3.10
2022-08-30T12:49:54.045Z,2.60
2022-08-30T12:52:18.551Z,1.30
2022-08-30T12:54:42.342Z,2.00
2022-08-30T12:57:25.654Z,1.00
2022-08-30T12:59:59.561Z,2.70
2022-08-30T13:02:25.471Z,1.80
2022-08-30T13:04:51.858Z,1.70
2022-08-30T13:07:36.394Z,3.00
2022-08-30T13:10:04.655Z,1.30
2022-08-30T13:12:28.457Z,1.50
2022-08-30T13:14:53.886Z,1.40
2022-08-30T13:17:19.576Z,0.70
2022-08-30T13:19:55.156Z,0.70
2022-08-30T13:22:29.014Z,1.30
2022-08-30T13:24:52.491Z,0.40
2022-08-30T13:27:15.250Z,1.40
2022-08-30T13:29:38.788Z,1.20
2022-08-30T13:32:01.430Z,2.00
2022-08-30T13:34:24.695Z,2.10
2022-08-30T13:36:49.829Z,0.40
2022-08-30T13:39:12.650Z,1.20
2022-08-30T13:41:38.183Z,0.90
2022-08-30T13:44:13.406Z,5.20
2022-08-30T13:46:37.279Z,1.00
2022-08-30T13:49:04.984Z,1.60
2022-08-30T13:51:27.766Z,2.20
2022-08-30T13:53:53.542Z,1.60
2022-08-30T13:56:19.949Z,2.10
2022-08-30T13:58:46.676Z,1.60
2022-08-30T14:01:09.477Z,1.30
2022-08-30T14:03:33.212Z,1.40
2022-08-30T14:06:22.296Z,1.00
2022-08-30T14:08:48.300Z,1.90
2022-08-30T14:11:16.262Z,1.10
2022-08-30T14:16:27.606Z,1.20
2022-08-30T14:18:50.642Z,1.70
2022-08-30T14:21:15.881Z,1.40
2022-08-30T14:23:38.566Z,2.40
2022-08-30T14:26:03.476Z,3.20
2022-08-30T14:28:28.684Z,1.20
2022-08-30T14:30:51.336Z,1.90
2022-08-30T14:33:19.289Z,1.80
2022-08-30T14:35:41.988Z,2.10
2022-08-30T14:38:07.033Z,3.40
2022-08-30T14:40:36.497Z,3.00
2022-08-30T14:43:02.473Z,1.60
2022-08-30T14:45:27.536Z,3.30
2022-08-30T14:47:50.320Z,1.60
2022-08-30T14:50:13.141Z,3.00
2022-08-30T14:52:36.213Z,1.90
2022-08-30T14:55:05.162Z,2.10
2022-08-30T14:57:34.004Z,2.30
2022-08-30T14:59:59.340Z,4.10
2022-08-30T15:02:26.562Z,1.00
2022-08-30T15:04:49.776Z,2.10
2022-08-30T15:07:13.833Z,1.20
2022-08-30T15:09:36.939Z,2.60
2022-08-30T15:12:05.328Z,2.60
2022-08-30T15:14:31.794Z,2.40
2022-08-30T15:16:54.713Z,1.70
2022-08-30T15:19:17.413Z,2.80
2022-08-30T15:21:48.398Z,1.50
2022-08-30T15:24:12.759Z,2.10
2022-08-30T15:26:43.805Z,3.10
2022-08-30T15:29:09.183Z,1.90
2022-08-30T15:31:32.045Z,1.40
2022-08-30T15:33:54.941Z,1.60
2022-08-30T15:36:19.532Z,1.50
2022-08-30T15:38:45.189Z,1.60
2022-08-30T15:41:11.099Z,1.90
2022-08-30T15:43:34.735Z,2.00
2022-08-30T15:45:57.692Z,2.70
2022-08-30T15:48:25.922Z,2.40
2022-08-30T15:51:00.295Z,2.00
2022-08-30T15:53:23.547Z,2.10
2022-08-30T15:55:50.905Z,2.50
2022-08-30T15:58:13.957Z,2.50
2022-08-30T16:00:44.876Z,2.40
2022-08-30T16:03:10.342Z,1.70
2022-08-30T16:05:35.567Z,1.40
2022-08-30T16:07:58.493Z,1.90
2022-08-30T16:10:21.726Z,2.20
2022-08-30T16:12:44.326Z,3.70
2022-08-30T16:15:07.839Z,1.60
2022-08-30T16:17:30.536Z,2.70
2022-08-30T16:19:56.869Z,1.10
2022-08-30T16:22:22.854Z,3.50
2022-08-30T16:24:46.648Z,2.60
2022-08-30T16:27:09.760Z,2.80
2022-08-30T16:29:34.967Z,2.80
2022-08-30T16:31:58.019Z,2.30
2022-08-30T16:34:25.898Z,3.30
2022-08-30T16:36:51.297Z,2.50
2022-08-30T16:39:14.708Z,4.60
2022-08-30T16:41:40.914Z,2.80
2022-08-30T16:44:05.349Z,1.50
2022-08-30T16:46:28.191Z,2.60
2022-08-30T16:48:51.083Z,1.50
2022-08-30T16:51:17.632Z,1.50
2022-08-30T16:53:41.281Z,2.90
2022-08-30T16:56:07.164Z,3.40
2022-08-30T16:58:29.750Z,1.80
2022-08-30T17:00:52.646Z,4.90
2022-08-30T17:03:16.174Z,2.70
2022-08-30T17:05:40.905Z,2.30
2022-08-30T17:08:07.087Z,2.90
2022-08-30T17:10:33.083Z,2.90
2022-08-30T17:12:56.063Z,2.30
2022-08-30T17:15:20.140Z,1.60
2022-08-30T17:17:44.965Z,1.70
2022-08-30T17:20:08.599Z,2.50
2022-08-30T17:22:31.279Z,2.80
2022-08-30T17:24:54.398Z,2.80
2022-08-30T17:27:17.259Z,1.70
2022-08-30T17:29:40.433Z,3.00
2022-08-30T17:32:03.472Z,1.80
2022-08-30T17:34:28.141Z,1.50
2022-08-30T17:36:51.835Z,1.50
2022-08-30T17:39:15.094Z,2.30
2022-08-30T17:41:38.366Z,2.90
2022-08-30T17:44:02.021Z,2.20
2022-08-30T17:46:25.244Z,3.00
2022-08-30T17:48:57.920Z,1.50
2022-08-30T17:51:28.057Z,2.20
2022-08-30T17:53:50.931Z,2.30
2022-08-30T17:56:14.089Z,2.60
2022-08-30T17:58:37.246Z,3.00
2022-08-30T18:01:11.592Z,1.80
2022-08-30T18:03:35.339Z,2.50
2022-08-30T18:06:00.269Z,2.40
2022-08-30T18:08:23.286Z,1.80
2022-08-30T18:10:49.516Z,1.20
2022-08-30T18:13:17.691Z,0.50
2022-08-30T18:15:43.996Z,1.20
2022-08-30T18:18:07.188Z,2.00
2022-08-30T18:20:34.665Z,1.80
2022-08-30T18:22:59.656Z,1.00
2022-08-30T18:25:22.518Z,5.20
2022-08-30T18:27:57.139Z,0.80
2022-08-30T18:30:22.236Z,1.60
2022-08-30T18:32:47.832Z,1.30
2022-08-30T18:35:11.812Z,1.80
2022-08-30T18:37:37.525Z,1.20
2022-08-30T18:40:00.971Z,0.70
2022-08-30T18:42:23.863Z,0.90
2022-08-30T18:44:46.896Z,0.80
2022-08-30T18:47:10.342Z,1.20
2022-08-30T18:49:33.928Z,1.10
2022-08-30T18:51:59.208Z,1.00
2022-08-30T18:54:22.105Z,1.40
2022-08-30T18:56:47.903Z,1.10
2022-08-30T18:59:11.802Z,3.00
2022-08-30T19:01:35.454Z,1.20
2022-08-30T19:03:58.655Z,2.50
2022-08-30T19:06:24.114Z,2.60
2022-08-30T19:08:48.749Z,5.30
2022-08-30T19:11:14.628Z,2.40
2022-08-30T19:13:37.686Z,2.10
2022-08-30T19:16:00.585Z,2.30
2022-08-30T19:18:23.282Z,1.40
2022-08-30T19:20:47.665Z,2.20
2022-08-30T19:23:10.557Z,2.50
2022-08-30T19:25:33.635Z,1.80
2022-08-30T19:27:56.628Z,2.30
2022-08-30T19:30:23.021Z,1.70
2022-08-30T19:32:48.240Z,1.60
2022-08-30T19:35:11.881Z,2.10
2022-08-30T19:37:38.373Z,3.40
2022-08-30T19:40:06.481Z,2.20
2022-08-30T19:42:29.244Z,2.50
2022-08-30T19:44:52.759Z,2.50
2022-08-30T19:47:15.503Z,3.10
2022-08-30T19:49:38.353Z,4.00
2022-08-30T19:52:03.393Z,3.10
2022-08-30T19:54:26.941Z,2.60
2022-08-30T19:56:49.923Z,2.40
2022-08-30T19:59:14.055Z,4.90
2022-08-30T20:01:36.949Z,2.40
2022-08-30T20:06:45.645Z,2.40
2022-08-30T20:09:10.955Z,4.10
2022-08-30T20:11:37.387Z,4.40
2022-08-30T20:14:00.174Z,3.00
2022-08-30T20:16:33.019Z,2.90
2022-08-30T20:19:00.278Z,1.60
2022-08-30T20:21:25.484Z,3.40
2022-08-30T20:23:48.556Z,2.10
2022-08-30T20:26:14.383Z,2.20
2022-08-30T20:28:37.924Z,5.00
2022-08-30T20:31:00.586Z,3.30
2022-08-30T20:33:27.698Z,7.70
2022-08-30T20:35:51.802Z,3.50
2022-08-30T20:38:20.780Z,5.10
2022-08-30T20:40:47.266Z,4.10
2022-08-30T20:43:15.193Z,6.80
2022-08-30T20:45:40.686Z,5.60
2022-08-30T20:48:06.729Z,3.20
2022-08-30T20:50:31.808Z,2.60
2022-08-30T20:52:54.601Z,2.70
2022-08-30T20:55:17.837Z,1.80
2022-08-30T20:57:40.688Z,2.40
2022-08-30T21:00:04.826Z,2.30
2022-08-30T21:02:30.374Z,3.90
2022-08-30T21:04:55.693Z,3.10
2022-08-30T21:07:18.356Z,3.20
2022-08-30T21:09:42.311Z,4.50
2022-08-30T21:12:05.409Z,2.60
2022-08-30T21:14:28.215Z,2.50
2022-08-30T21:16:51.014Z,2.20
2022-08-30T21:19:13.827Z,4.10
2022-08-30T21:21:39.328Z,4.20
2022-08-30T21:24:06.984Z,2.10
2022-08-30T21:26:35.460Z,2.50
2022-08-30T21:28:58.365Z,2.10
2022-08-30T21:31:27.018Z,3.80
2022-08-30T21:33:51.185Z,3.80
2022-08-30T21:36:36.080Z,3.50
2022-08-30T21:39:03.612Z,4.50
2022-08-30T21:41:30.311Z,2.20
2022-08-30T21:43:58.204Z,4.10
2022-08-30T21:46:20.921Z,4.00
2022-08-30T21:48:43.622Z,4.00
2022-08-30T21:51:07.352Z,3.80
2022-08-30T21:53:30.755Z,4.10
2022-08-30T21:55:53.555Z,2.50
2022-08-30T21:58:18.757Z,4.10
2022-08-30T22:00:41.981Z,2.20
2022-08-30T22:03:04.832Z,3.30
2022-08-30T22:05:27.868Z,1.90
2022-08-30T22:07:53.108Z,4.40
2022-08-30T22:10:16.093Z,3.90
2022-08-30T22:12:39.282Z,3.20
2022-08-30T22:15:05.307Z,3.40
2022-08-30T22:17:28.161Z,3.00
2022-08-30T22:19:51.006Z,4.60
2022-08-30T22:22:14.379Z,2.90
2022-08-30T22:24:37.218Z,4.50
2022-08-30T22:27:03.452Z,2.80
2022-08-30T22:29:26.627Z,3.40
2022-08-30T22:31:49.838Z,3.70
2022-08-30T22:34:12.919Z,5.10
2022-08-30T22:36:36.383Z,3.70
2022-08-30T22:39:00.215Z,2.80
2022-08-30T22:41:25.573Z,2.60
2022-08-30T22:43:53.742Z,2.70
2022-08-30T22:46:17.593Z,3.20
2022-08-30T22:48:42.612Z,4.50
2022-08-30T22:51:05.814Z,2.50
2022-08-30T22:53:28.746Z,1.90
2022-08-30T22:55:51.576Z,2.40
2022-08-30T22:58:14.447Z,3.00
2022-08-30T23:00:39.013Z,3.10
2022-08-30T23:03:06.675Z,3.60
2022-08-30T23:05:31.573Z,3.40
2022-08-30T23:07:56.270Z,2.70
2022-08-30T23:10:19.205Z,2.80
2022-08-30T23:12:45.075Z,2.40
2022-08-30T23:15:09.357Z,3.10
2022-08-30T23:17:39.417Z,2.50
2022-08-30T23:20:03.327Z,3.00
2022-08-30T23:22:26.779Z,2.00
2022-08-30T23:25:13.238Z,4.30
2022-08-30T23:27:57.745Z,3.60
2022-08-30T23:30:39.251Z,2.60
2022-08-30T23:33:21.178Z,2.60
2022-08-30T23:36:05.363Z,2.50
2022-08-30T23:38:46.913Z,3.90
2022-08-30T23:41:32.228Z,3.70
2022-08-30T23:44:16.005Z,3.00
2022-08-30T23:46:57.824Z,3.20
2022-08-30T23:49:39.275Z,3.90
2022-08-30T23:52:20.810Z,3.40
2022-08-30T23:55:02.559Z,2.90
2022-08-30T23:57:46.575Z,3.10
